createdAt,value
2018-11-11T00:00:15.762Z,6.300
2018-11-11T00:03:15.818Z,8.587
2018-11-11T00:06:15.849Z,4.913
2018-11-11T00:09:14.954Z,8.412
2018-11-11T00:12:15.066Z,5.562
2018-11-11T00:15:15.353Z,5.312
2018-11-11T00:18:15.516Z,6.787
2018-11-11T00:21:15.831Z,5.625
2018-11-11T00:24:16.000Z,4.100
2018-11-11T00:27:15.085Z,10.125
2018-11-11T00:30:15.283Z,7.638
2018-11-11T00:33:15.158Z,3.150
2018-11-11T00:36:15.178Z,4.737
2018-11-11T00:39:15.247Z,3.688
2018-11-11T00:42:15.501Z,5.537
2018-11-11T00:45:15.525Z,4.688
2018-11-11T00:48:15.747Z,5.038
2018-11-11T00:51:15.713Z,4.225
2018-11-11T00:54:15.734Z,6.638
2018-11-11T00:57:15.696Z,6.263
2018-11-11T01:00:15.957Z,9.100
2018-11-11T01:03:15.104Z,12.400
2018-11-11T01:06:15.293Z,11.012
2018-11-11T01:09:15.222Z,13.213
2018-11-11T01:12:15.299Z,9.788
2018-11-11T01:15:15.502Z,12.812
2018-11-11T01:18:15.718Z,9.363
2018-11-11T01:21:14.898Z,10.612
2018-11-11T01:24:14.975Z,9.788
2018-11-11T01:27:15.229Z,11.250
2018-11-11T01:30:15.311Z,15.688
2018-11-11T01:33:15.633Z,11.912
2018-11-11T01:36:15.650Z,11.512
2018-11-11T01:39:15.879Z,9.188
2018-11-11T01:42:15.169Z,10.688
2018-11-11T01:45:15.326Z,10.587
2018-11-11T01:48:15.372Z,9.200
2018-11-11T01:51:15.284Z,5.925
2018-11-11T01:54:15.299Z,7.000
2018-11-11T01:57:15.429Z,7.337
2018-11-11T02:00:15.583Z,6.787
2018-11-11T02:03:15.606Z,8.150
2018-11-11T02:06:15.616Z,5.875
2018-11-11T02:09:15.678Z,3.812
2018-11-11T02:12:15.981Z,5.237
2018-11-11T02:15:15.215Z,5.462
2018-11-11T02:18:15.351Z,4.325
2018-11-11T02:21:15.533Z,2.700
2018-11-11T02:24:15.851Z,4.213
2018-11-11T02:27:15.007Z,2.300
2018-11-11T02:30:15.196Z,2.350
2018-11-11T02:33:15.297Z,1.800
2018-11-11T02:36:15.335Z,2.725
2018-11-11T02:39:15.264Z,1.988
2018-11-11T02:42:15.261Z,1.087
2018-11-11T02:45:15.182Z,1.663
2018-11-11T02:48:15.309Z,4.812
2018-11-11T02:51:15.204Z,2.275
2018-11-11T02:54:15.292Z,0.725
2018-11-11T02:57:15.318Z,2.250
2018-11-11T03:00:15.519Z,1.425
2018-11-11T03:03:15.643Z,1.363
2018-11-11T03:06:15.666Z,1.962
2018-11-11T03:09:15.844Z,2.837
2018-11-11T03:12:15.180Z,1.963
2018-11-11T03:15:15.175Z,2.737
2018-11-11T03:18:15.414Z,2.338
2018-11-11T03:21:15.228Z,1.337
2018-11-11T03:24:15.287Z,0.800
2018-11-11T03:27:15.224Z,3.438
2018-11-11T03:30:15.181Z,4.912
2018-11-11T03:33:15.261Z,4.025
2018-11-11T03:36:15.250Z,4.725
2018-11-11T03:39:15.359Z,5.675
2018-11-11T03:42:15.571Z,3.625
2018-11-11T03:45:15.728Z,3.775
2018-11-11T03:48:15.963Z,4.550
2018-11-11T03:51:14.976Z,5.800
2018-11-11T03:54:15.181Z,4.775
2018-11-11T03:57:15.501Z,9.025
2018-11-11T04:00:15.552Z,5.175
2018-11-11T04:03:15.536Z,4.050
2018-11-11T04:06:15.674Z,5.988
2018-11-11T04:09:15.777Z,6.463
2018-11-11T04:12:15.941Z,7.900
2018-11-11T04:15:15.012Z,3.925
2018-11-11T04:18:15.255Z,7.612
2018-11-11T04:21:15.018Z,5.100
2018-11-11T04:24:15.211Z,7.350
2018-11-11T04:27:15.324Z,7.788
2018-11-11T04:30:15.426Z,3.862
2018-11-11T04:33:15.515Z,5.950
2018-11-11T04:36:15.517Z,7.487
2018-11-11T04:39:15.760Z,7.875
2018-11-11T04:42:15.857Z,5.450
2018-11-11T04:45:15.904Z,6.025
2018-11-11T04:48:15.114Z,4.588
2018-11-11T04:51:14.960Z,4.950
2018-11-11T04:54:15.875Z,4.675
2018-11-11T04:57:15.774Z,8.075
2018-11-11T05:00:15.959Z,9.075
2018-11-11T05:03:15.246Z,5.750
2018-11-11T05:06:15.050Z,5.963
2018-11-11T05:09:15.254Z,7.275
2018-11-11T05:12:15.278Z,10.650
2018-11-11T05:15:15.387Z,6.575
2018-11-11T05:18:15.580Z,10.200
2018-11-11T05:21:15.622Z,11.900
2018-11-11T05:24:15.559Z,5.675
2018-11-11T05:27:15.003Z,11.688
2018-11-11T05:30:15.231Z,8.837
2018-11-11T05:33:15.239Z,8.750
2018-11-11T05:36:15.202Z,9.488
2018-11-11T05:39:15.175Z,9.125
2018-11-11T05:42:15.240Z,7.525
2018-11-11T05:45:15.338Z,8.275
2018-11-11T05:48:15.675Z,5.725
2018-11-11T05:51:15.632Z,5.162
2018-11-11T05:54:15.695Z,6.438
2018-11-11T05:57:15.812Z,4.625
2018-11-11T06:00:16.235Z,3.162
2018-11-11T06:03:15.383Z,4.725
2018-11-11T06:06:15.469Z,1.113
2018-11-11T06:09:15.521Z,2.137
2018-11-11T06:12:15.569Z,1.188
2018-11-11T06:15:15.748Z,5.013
2018-11-11T06:18:15.865Z,1.438
2018-11-11T06:21:14.941Z,1.688
2018-11-11T06:24:14.983Z,1.200
2018-11-11T06:27:15.139Z,2.175
2018-11-11T06:30:15.669Z,1.200
2018-11-11T06:33:15.845Z,1.725
2018-11-11T06:36:15.836Z,0.825
2018-11-11T06:39:15.931Z,2.975
2018-11-11T06:42:15.914Z,0.312
2018-11-11T06:45:15.038Z,0.475
2018-11-11T06:48:15.393Z,1.062
2018-11-11T06:51:15.391Z,0.700
2018-11-11T06:54:15.656Z,0.725
2018-11-11T06:57:15.856Z,2.138
2018-11-11T07:00:15.753Z,2.062
2018-11-11T07:03:15.013Z,1.013
2018-11-11T07:06:15.686Z,2.537
2018-11-11T07:09:15.487Z,1.762
2018-11-11T07:12:15.845Z,2.375
2018-11-11T07:15:14.997Z,0.800
2018-11-11T07:18:15.508Z,0.300
2018-11-11T07:21:15.819Z,0.875
2018-11-11T07:24:15.553Z,0.725
2018-11-11T07:27:15.761Z,0.350
2018-11-11T07:30:16.006Z,0.188
2018-11-11T07:33:15.606Z,0.200
2018-11-11T07:36:15.613Z,1.188
2018-11-11T07:39:15.759Z,0.300
2018-11-11T07:42:15.332Z,0.238
2018-11-11T07:45:15.236Z,0.338
2018-11-11T07:48:15.547Z,0.812
2018-11-11T07:51:15.123Z,0.150
2018-11-11T07:54:15.169Z,0.475
2018-11-11T07:57:15.687Z,0.175
2018-11-11T08:00:15.558Z,0.163
2018-11-11T08:03:15.787Z,0.538
2018-11-11T08:06:15.376Z,0.200
2018-11-11T08:09:15.146Z,0.512
2018-11-11T08:12:15.199Z,0.188
2018-11-11T08:15:15.319Z,0.588
2018-11-11T08:18:15.657Z,0.188
2018-11-11T08:21:15.848Z,0.250
2018-11-11T08:24:15.903Z,0.537
2018-11-11T08:27:15.186Z,0.150
2018-11-11T08:30:15.115Z,0.175
2018-11-11T08:33:15.175Z,0.163
2018-11-11T08:36:15.213Z,0.363
2018-11-11T08:39:15.597Z,0.225
2018-11-11T08:42:15.530Z,0.175
2018-11-11T08:45:15.653Z,0.188
2018-11-11T08:48:15.767Z,0.188
2018-11-11T08:51:15.308Z,0.975
2018-11-11T08:54:15.351Z,0.350
2018-11-11T08:57:15.447Z,0.175
2018-11-11T09:00:15.754Z,0.788
2018-11-11T09:03:15.920Z,0.350
2018-11-11T09:06:15.856Z,0.263
2018-11-11T09:09:15.185Z,0.150
2018-11-11T09:12:15.427Z,0.225
2018-11-11T09:15:15.879Z,0.338
2018-11-11T09:18:15.119Z,0.250
2018-11-11T09:21:15.534Z,0.212
2018-11-11T09:24:15.016Z,0.163
2018-11-11T09:27:15.230Z,0.825
2018-11-11T09:30:15.511Z,0.662
2018-11-11T09:33:15.510Z,0.550
2018-11-11T09:36:15.591Z,0.363
2018-11-11T09:39:15.774Z,0.237
2018-11-11T09:42:15.246Z,0.200
2018-11-11T09:45:15.611Z,0.663
2018-11-11T09:48:15.698Z,1.212
2018-11-11T09:51:15.917Z,1.062
2018-11-11T09:54:16.060Z,0.613
2018-11-11T09:57:15.894Z,0.838
2018-11-11T10:00:15.276Z,0.400
2018-11-11T10:03:15.749Z,0.475
2018-11-11T10:06:15.913Z,0.375
2018-11-11T10:09:16.051Z,0.825
2018-11-11T10:12:15.447Z,0.575
2018-11-11T10:15:15.377Z,0.250
2018-11-11T10:18:15.687Z,0.238
2018-11-11T10:21:15.173Z,2.550
2018-11-11T10:24:15.712Z,0.250
2018-11-11T10:27:15.503Z,0.713
2018-11-11T10:30:15.841Z,0.237
2018-11-11T10:33:15.086Z,0.487
2018-11-11T10:36:15.375Z,0.163
2018-11-11T10:39:15.775Z,0.362
2018-11-11T10:42:15.744Z,0.850
2018-11-11T10:45:15.136Z,0.400
2018-11-11T10:48:15.913Z,0.350
2018-11-11T10:51:15.849Z,1.300
2018-11-11T10:54:15.216Z,0.200
2018-11-11T10:57:15.867Z,2.088
2018-11-11T11:00:15.310Z,0.837
2018-11-11T11:03:15.912Z,0.362
2018-11-11T11:06:15.154Z,0.188
2018-11-11T11:09:16.004Z,0.487
2018-11-11T11:12:15.462Z,0.638
2018-11-11T11:15:15.765Z,0.463
2018-11-11T11:18:15.152Z,0.200
2018-11-11T11:21:15.218Z,1.363
2018-11-11T11:24:15.277Z,1.637
2018-11-11T11:27:15.708Z,0.775
2018-11-11T11:30:15.055Z,0.500
2018-11-11T11:33:15.247Z,0.425
2018-11-11T11:36:15.579Z,0.287
2018-11-11T11:39:15.053Z,0.525
2018-11-11T11:42:15.045Z,0.300
2018-11-11T11:45:15.282Z,1.850
2018-11-11T11:48:15.657Z,0.738
2018-11-11T11:51:16.014Z,0.325
2018-11-11T11:54:15.266Z,0.425
2018-11-11T11:57:15.318Z,2.087
2018-11-11T12:00:15.604Z,0.588
2018-11-11T12:03:15.062Z,1.237
2018-11-11T12:06:15.629Z,0.925
2018-11-11T12:09:15.262Z,0.388
2018-11-11T12:12:15.556Z,0.350
2018-11-11T12:15:16.023Z,0.575
2018-11-11T12:18:15.472Z,0.512
2018-11-11T12:21:15.875Z,0.700
2018-11-11T12:24:15.340Z,0.613
2018-11-11T12:27:15.428Z,2.487
2018-11-11T12:30:15.666Z,0.812
2018-11-11T12:33:15.558Z,0.988
2018-11-11T12:36:16.056Z,0.200
2018-11-11T12:39:15.620Z,0.650
2018-11-11T12:42:15.436Z,1.112
2018-11-11T12:45:15.443Z,0.637
2018-11-11T12:48:15.529Z,0.325
2018-11-11T12:51:15.734Z,1.225
2018-11-11T12:54:15.222Z,1.388
2018-11-11T12:57:15.427Z,3.350
2018-11-11T13:00:15.056Z,0.562
2018-11-11T13:03:15.378Z,1.200
2018-11-11T13:06:15.998Z,0.762
2018-11-11T13:09:15.718Z,0.463
2018-11-11T13:12:15.387Z,1.700
2018-11-11T13:15:15.605Z,0.562
2018-11-11T13:18:15.899Z,0.725
2018-11-11T13:21:15.035Z,0.463
2018-11-11T13:24:15.540Z,0.262
2018-11-11T13:27:15.780Z,0.500
2018-11-11T13:30:15.283Z,1.188
2018-11-11T13:33:15.687Z,1.125
2018-11-11T13:36:15.022Z,0.562
2018-11-11T13:39:15.209Z,0.463
2018-11-11T13:42:15.018Z,0.312
2018-11-11T13:45:15.587Z,4.587
2018-11-11T13:48:15.863Z,0.575
2018-11-11T13:51:15.286Z,2.400
2018-11-11T13:54:15.951Z,0.312
2018-11-11T13:57:15.488Z,0.200
2018-11-11T14:00:16.024Z,0.413
2018-11-11T14:03:15.813Z,0.887
2018-11-11T14:06:15.260Z,0.200
2018-11-11T14:09:15.695Z,1.650
2018-11-11T14:12:15.493Z,0.562
2018-11-11T14:15:15.983Z,1.462
2018-11-11T14:18:15.858Z,1.062
2018-11-11T14:21:15.084Z,0.487
2018-11-11T14:24:15.348Z,1.337
2018-11-11T14:27:15.966Z,0.588
2018-11-11T14:30:15.456Z,0.425
2018-11-11T14:33:15.785Z,0.725
2018-11-11T14:36:15.308Z,0.188
2018-11-11T14:39:15.942Z,3.587
2018-11-11T14:42:15.416Z,1.188
2018-11-11T14:45:15.843Z,1.200
2018-11-11T14:48:15.588Z,2.338
2018-11-11T14:51:16.223Z,1.075
2018-11-11T14:54:15.710Z,0.263
2018-11-11T14:57:15.064Z,2.062
2018-11-11T15:00:15.470Z,0.412
2018-11-11T15:03:15.464Z,0.463
2018-11-11T15:06:15.850Z,0.537
2018-11-11T15:09:15.320Z,0.225
2018-11-11T15:12:15.451Z,0.425
2018-11-11T15:15:15.519Z,0.788
2018-11-11T15:18:15.412Z,2.525
2018-11-11T15:21:15.611Z,0.275
2018-11-11T15:24:15.832Z,0.938
2018-11-11T15:27:15.375Z,0.637
2018-11-11T15:30:15.799Z,1.363
2018-11-11T15:33:15.897Z,0.363
2018-11-11T15:36:15.533Z,0.675
2018-11-11T15:39:15.731Z,1.575
2018-11-11T15:42:15.191Z,0.512
2018-11-11T15:45:16.037Z,0.938
2018-11-11T15:48:15.579Z,0.237
2018-11-11T15:51:15.823Z,0.450
2018-11-11T15:54:15.104Z,0.925
2018-11-11T15:57:15.446Z,0.250
2018-11-11T16:00:15.635Z,0.600
2018-11-11T16:03:15.373Z,0.800
2018-11-11T16:06:15.496Z,0.775
2018-11-11T16:09:14.980Z,0.438
2018-11-11T16:12:15.308Z,0.350
2018-11-11T16:15:15.338Z,1.562
2018-11-11T16:18:15.128Z,0.500
2018-11-11T16:21:15.479Z,0.738
2018-11-11T16:24:15.636Z,0.338
2018-11-11T16:27:15.827Z,1.025
2018-11-11T16:30:15.753Z,0.363
2018-11-11T16:33:15.072Z,1.087
2018-11-11T16:36:15.453Z,0.450
2018-11-11T16:39:15.151Z,1.087
2018-11-11T16:42:15.835Z,0.850
2018-11-11T16:45:14.972Z,0.262
2018-11-11T16:48:15.238Z,0.350
2018-11-11T16:51:15.391Z,0.475
2018-11-11T16:54:15.958Z,0.775
2018-11-11T16:57:15.171Z,0.662
2018-11-11T17:00:15.328Z,0.375
2018-11-11T17:03:15.606Z,0.975
2018-11-11T17:06:15.650Z,0.263
2018-11-11T17:09:15.712Z,0.312
2018-11-11T17:12:15.815Z,1.025
2018-11-11T17:15:14.956Z,0.975
2018-11-11T17:18:15.603Z,0.662
2018-11-11T17:21:15.563Z,0.725
2018-11-11T17:24:15.526Z,0.587
2018-11-11T17:27:15.848Z,0.413
2018-11-11T17:30:16.107Z,0.725
2018-11-11T17:33:15.084Z,0.950
2018-11-11T17:36:15.298Z,1.200
2018-11-11T17:39:15.541Z,1.263
2018-11-11T17:42:15.953Z,0.625
2018-11-11T17:45:15.485Z,0.863
2018-11-11T17:48:15.438Z,3.913
2018-11-11T17:51:20.040Z,0.400
2018-11-11T17:54:15.031Z,0.413
2018-11-11T17:57:15.297Z,0.413
2018-11-11T18:00:15.490Z,0.275
2018-11-11T18:03:15.962Z,0.787
2018-11-11T18:06:15.389Z,0.350
2018-11-11T18:09:15.496Z,0.663
2018-11-11T18:12:15.488Z,0.463
2018-11-11T18:15:15.674Z,0.362
2018-11-11T18:18:15.202Z,0.875
2018-11-11T18:21:15.304Z,0.475
2018-11-11T18:24:15.434Z,7.863
2018-11-11T18:27:15.905Z,0.850
2018-11-11T18:30:15.126Z,0.450
2018-11-11T18:33:15.201Z,0.412
2018-11-11T18:36:15.417Z,0.475
2018-11-11T18:39:15.728Z,0.650
2018-11-11T18:42:15.968Z,0.825
2018-11-11T18:45:15.401Z,0.338
2018-11-11T18:48:15.211Z,5.388
2018-11-11T18:51:15.289Z,0.613
2018-11-11T18:54:15.615Z,1.400
2018-11-11T18:57:16.113Z,0.425
2018-11-11T19:00:15.712Z,0.863
2018-11-11T19:03:15.346Z,0.438
2018-11-11T19:06:15.487Z,0.375
2018-11-11T19:09:15.962Z,0.475
2018-11-11T19:12:15.190Z,2.075
2018-11-11T19:15:15.472Z,0.213
2018-11-11T19:18:15.843Z,2.688
2018-11-11T19:21:16.021Z,0.637
2018-11-11T19:24:15.481Z,0.763
2018-11-11T19:27:15.291Z,0.537
2018-11-11T19:30:15.750Z,0.688
2018-11-11T19:33:15.474Z,0.738
2018-11-11T19:36:15.978Z,1.738
2018-11-11T19:39:14.990Z,2.050
2018-11-11T19:42:15.376Z,0.713
2018-11-11T19:45:15.441Z,0.450
2018-11-11T19:48:15.557Z,0.550
2018-11-11T19:51:15.854Z,2.625
2018-11-11T19:54:15.434Z,0.562
2018-11-11T19:57:15.633Z,1.250
2018-11-11T20:00:15.050Z,0.400
2018-11-11T20:03:15.677Z,0.787
2018-11-11T20:06:15.753Z,0.988
2018-11-11T20:09:15.883Z,1.087
2018-11-11T20:12:15.296Z,1.050
2018-11-11T20:15:15.357Z,1.450
2018-11-11T20:18:15.851Z,2.500
2018-11-11T20:21:15.959Z,0.363
2018-11-11T20:24:15.282Z,0.662
2018-11-11T20:27:15.932Z,0.900
2018-11-11T20:30:15.245Z,0.725
2018-11-11T20:33:15.700Z,0.775
2018-11-11T20:36:15.830Z,0.375
2018-11-11T20:39:15.800Z,0.700
2018-11-11T20:42:15.919Z,1.050
2018-11-11T20:45:15.885Z,0.388
2018-11-11T20:48:15.396Z,0.675
2018-11-11T20:51:15.617Z,1.050
2018-11-11T20:54:15.695Z,0.850
2018-11-11T20:57:15.984Z,0.975
2018-11-11T21:00:15.061Z,0.537
2018-11-11T21:03:15.752Z,0.400
2018-11-11T21:06:15.858Z,0.425
2018-11-11T21:09:15.231Z,0.575
2018-11-11T21:12:15.415Z,0.962
2018-11-11T21:15:15.637Z,0.662
2018-11-11T21:18:15.164Z,0.325
2018-11-11T21:21:15.192Z,1.200
2018-11-11T21:24:15.427Z,0.838
2018-11-11T21:27:15.328Z,0.300
2018-11-11T21:30:15.391Z,1.150
2018-11-11T21:33:15.877Z,0.450
2018-11-11T21:36:16.012Z,1.100
2018-11-11T21:39:15.075Z,2.875
2018-11-11T21:42:15.370Z,0.875
2018-11-11T21:45:15.688Z,1.087
2018-11-11T21:48:15.733Z,1.387
2018-11-11T21:51:15.863Z,3.362
2018-11-11T21:54:15.889Z,1.325
2018-11-11T21:57:15.177Z,1.087
2018-11-11T22:00:15.230Z,0.788
2018-11-11T22:03:15.287Z,1.663
2018-11-11T22:06:15.663Z,0.787
2018-11-11T22:09:15.725Z,0.400
2018-11-11T22:12:15.465Z,2.888
2018-11-11T22:15:15.710Z,1.663
2018-11-11T22:18:15.172Z,1.375
2018-11-11T22:21:15.589Z,1.250
2018-11-11T22:24:15.667Z,0.725
2018-11-11T22:27:15.783Z,1.663
2018-11-11T22:30:15.395Z,0.688
2018-11-11T22:33:15.408Z,0.200
2018-11-11T22:36:15.437Z,0.875
2018-11-11T22:39:15.553Z,1.250
2018-11-11T22:42:15.607Z,0.938
2018-11-11T22:45:15.079Z,0.312
2018-11-11T22:48:15.366Z,0.637
2018-11-11T22:51:15.392Z,0.500
2018-11-11T22:54:15.393Z,0.488
2018-11-11T22:57:15.335Z,0.950
2018-11-11T23:00:15.456Z,1.388
2018-11-11T23:03:15.250Z,0.925
2018-11-11T23:06:15.413Z,1.312
2018-11-11T23:09:15.596Z,0.512
2018-11-11T23:12:16.067Z,1.062
2018-11-11T23:15:15.392Z,0.862
2018-11-11T23:18:15.809Z,0.625
2018-11-11T23:21:14.992Z,0.487
2018-11-11T23:24:15.128Z,1.012
2018-11-11T23:27:15.298Z,1.412
2018-11-11T23:30:15.831Z,0.762
2018-11-11T23:33:15.864Z,0.575
2018-11-11T23:36:16.067Z,0.863
2018-11-11T23:39:15.072Z,0.663
2018-11-11T23:42:15.242Z,1.050
2018-11-11T23:45:15.498Z,0.950
2018-11-11T23:48:15.620Z,0.650
2018-11-11T23:51:15.604Z,1.212
2018-11-11T23:54:15.480Z,0.825
2018-11-11T23:57:15.406Z,2.362
